Time;durP1;ratioP1;P1;durP2;ratioP2;P2;SDS_P1;SDS_P2;PMS_P1;PMS_P2;Temp;Humidity;BMP_temperature;BMP_pressure;BME280_temperature;BME280_humidity;BME280_pressure;Samples;Min_cycle;Max_cycle;Signal;HPM_P1;HPM_P2
2022/03/25 00:01:57;;;;;;;22.00;12.75;;;282.50;972.80;;;;;;5034233;28;20377;-91
2022/03/25 00:04:23;;;;;;;22.83;13.40;;;282.30;998.40;;;;;;5034230;28;20389;-90
2022/03/25 00:06:52;;;;;;;24.85;13.63;;;;;;;;;;5034362;28;20719;-89
2022/03/25 00:09:18;;;;;;;21.60;13.30;;;;;;;;;;5034315;28;20858;-88
2022/03/25 00:11:46;;;;;;;23.33;14.38;;;;;;;;;;5034330;28;20412;-88
2022/03/25 00:14:12;;;;;;;25.95;14.40;;;;;;;;;;5033773;28;20374;-90
2022/03/25 00:19:26;;;;;;;25.27;13.38;;;;;;;;;;5028478;23;20411;-90
2022/03/25 00:21:53;;;;;;;23.88;13.77;;;;;;;;;;5014300;28;20387;-89
2022/03/25 00:24:19;;;;;;;26.95;13.70;;;;;;;;;;4997707;28;20384;-90
2022/03/25 01:30:54;;;;;;;23.67;10.77;;;231.20;1100.80;;;;;;5013232;28;20050;-89
2022/03/25 01:33:20;;;;;;;19.48;9.98;;;231.00;1126.40;;;;;;4997428;28;20368;-89
2022/03/25 01:35:47;;;;;;;20.55;10.85;;;230.90;1152.00;;;;;;4997370;28;20022;-89
2022/03/25 01:38:13;;;;;;;20.33;8.75;;;230.70;1152.00;;;;;;4997175;28;20037;-89
2022/03/25 01:40:39;;;;;;;16.95;8.70;;;230.70;1177.60;;;;;;4997309;28;20466;-90
2022/03/25 01:43:07;;;;;;;16.85;9.25;;;230.60;1177.60;;;;;;4997460;28;20022;-89
2022/03/25 01:45:37;;;;;;;20.33;9.20;;;230.50;1203.20;;;;;;4997321;28;20120;-91
2022/03/25 01:48:12;;;;;;;16.85;9.30;;;230.50;1203.20;;;;;;4997090;28;20026;-89
2022/03/25 01:50:43;;;;;;;17.75;9.25;;;230.50;1203.20;;;;;;4997330;28;20022;-90
2022/03/25 01:53:13;;;;;;;17.02;8.90;;;230.40;1228.80;;;;;;4997144;28;20030;-90
2022/03/25 01:56:05;;;;;;;24.17;9.20;;;205.70;1228.80;;;;;;4996877;28;20029;-89
2022/03/25 01:58:33;;;;;;;24.63;9.50;;;205.70;1254.40;;;;;;4997064;28;20034;-90
2022/03/25 02:01:02;;;;;;;23.73;9.00;;;230.40;1254.40;;;;;;4997148;28;20017;-90
2022/03/25 02:03:28;;;;;;;22.70;9.15;;;205.60;1254.40;;;;;;4996960;28;20049;-90
2022/03/25 02:05:53;;;;;;;;;;;205.60;1254.40;;;;;;4997434;28;20029;-90
2022/03/25 02:08:20;;;;;;;;;;;205.50;1254.40;;;;;;4997190;28;19916;-90
2022/03/25 02:10:45;;;;;;;;;;;205.40;1254.40;;;;;;4997364;28;19905;-91
2022/03/25 02:13:11;;;;;;;;;;;205.40;1254.40;;;;;;4997365;28;20389;-89
2022/03/25 02:15:38;;;;;;;;;;;205.40;1254.40;;;;;;4997378;28;20014;-89
2022/03/25 02:18:05;;;;;;;;;;;205.30;1280.00;;;;;;4997262;28;19920;-90
2022/03/25 02:20:31;;;;;;;;;;;205.20;1280.00;;;;;;4999152;28;19909;-90
2022/03/25 02:22:57;;;;;;;;;;;205.30;1254.40;;;;;;5001235;28;19916;-92
2022/03/25 02:25:23;;;;;;;;;;;205.20;1280.00;;;;;;5001493;28;19905;-89
2022/03/25 02:27:49;;;;;;;;;;;205.20;1280.00;;;;;;5001575;28;20402;-90
2022/03/25 02:30:14;;;;;;;;;;;205.20;1280.00;;;;;;5001016;28;19925;-90
2022/03/25 02:32:40;;;;;;;;;;;205.10;1305.60;;;;;;5001084;28;19905;-90
2022/03/25 02:35:06;;;;;;;;;;;205.10;1331.20;;;;;;5001191;28;19941;-93
2022/03/25 02:37:32;;;;;;;;;;;205.10;1331.20;;;;;;5000494;28;19916;-90
2022/03/25 02:39:58;;;;;;;;;;;205.00;1331.20;;;;;;5000732;28;19914;-91
2022/03/25 02:42:24;;;;;;;;;;;205.00;1305.60;;;;;;5000849;28;19909;-90
2022/03/25 02:44:49;;;;;;;;;;;204.90;1331.20;;;;;;5000772;28;19909;-90
2022/03/25 02:47:16;;;;;;;;;;;204.90;1331.20;;;;;;5000542;28;19905;-90
2022/03/25 02:49:41;;;;;;;;;;;205.00;1331.20;;;;;;5000824;28;20011;-89
2022/03/25 02:52:07;;;;;;;;;;;204.90;1331.20;;;;;;5000643;28;20354;-89
2022/03/25 02:54:33;;;;;;;;;;;204.80;1356.80;;;;;;5000550;28;19913;-89
2022/03/25 02:56:59;;;;;;;;;;;204.80;1305.60;;;;;;4996870;28;19917;-92
2022/03/25 02:59:25;;;;;;;;;;;180.10;1356.80;;;;;;4981355;28;20362;-88
2022/03/25 03:01:52;;;;;;;;;;;180.10;1356.80;;;;;;5000325;28;19977;-89
2022/03/25 03:04:17;;;;;;;;;;;180.00;1356.80;;;;;;5000348;28;19905;-90
2022/03/25 03:09:31;;;;;;;;;;;180.00;1356.80;;;;;;5024472;23;20016;-90
2022/03/25 03:11:57;;;;;;;;;;;179.90;1356.80;;;;;;5000352;28;20005;-89
2022/03/25 03:14:23;;;;;;;;;;;179.90;1356.80;;;;;;4984142;28;19933;-88
2022/03/25 03:16:49;;;;;;;;;;;179.80;1356.80;;;;;;5000064;28;19905;-89
2022/03/25 03:19:15;;;;;;;;;;;179.80;1382.40;;;;;;4999801;28;19968;-89
2022/03/25 03:21:40;;;;;;;;;;;179.70;1382.40;;;;;;5000226;28;19905;-90
2022/03/25 03:24:09;;;;;;;;;;;179.70;1382.40;;;;;;5000162;28;19905;-88
2022/03/25 03:26:35;;;;;;;;;;;179.60;1382.40;;;;;;5000330;28;20017;-90
2022/03/25 03:29:02;;;;;;;;;;;179.50;1382.40;;;;;;4984153;28;20013;-88
2022/03/25 03:31:28;;;;;;;;;;;179.60;1382.40;;;;;;5016685;28;19909;-90
2022/03/25 03:36:38;;;;;;;;;;;;;;;;;;5053629;23;19925;-89
2022/03/25 03:53:41;;;;;;;;;;;;;;;;;;5172727;23;19953;-88
2022/03/25 06:35:07;;;;;;;34.92;23.30;;;;;;;;;;6048511;23;20382;31
2022/03/25 07:21:24;;;;;;;15.50;8.70;;;;;;;;;;4933282;29;20475;-90
2022/03/25 07:29:28;;;;;;;14.35;8.35;;;;;;;;;;4923622;29;20482;-90
2022/03/25 07:31:55;;;;;;;15.20;8.75;;;;;;;;;;4921718;29;20402;-91
2022/03/25 07:34:21;;;;;;;17.50;11.80;;;;;;;;;;4921802;29;20382;-92
2022/03/25 07:36:47;;;;;;;19.30;10.05;;;;;;;;;;4921540;29;20390;-89
2022/03/25 07:39:13;;;;;;;17.92;9.52;;;;;;;;;;4914628;29;20426;-90
2022/03/25 07:41:39;;;;;;;16.45;8.98;;;;;;;;;;4902685;29;20376;-90
2022/03/25 07:44:05;;;;;;;14.38;9.10;;;;;;;;;;4907835;29;20394;-89
2022/03/25 07:46:32;;;;;;;21.33;13.00;;;;;;;;;;4921275;29;20389;-90
2022/03/25 07:48:58;;;;;;;15.68;9.38;;;;;;;;;;4921445;29;20909;-90
2022/03/25 07:51:24;;;;;;;13.57;9.43;;;;;;;;;;4921426;29;20473;-88
2022/03/25 07:53:51;;;;;;;16.10;10.10;;;;;;;;;;4921226;29;20390;-87
2022/03/25 07:56:17;;;;;;;15.50;10.00;;;359.20;1024.00;;;;;;4920952;29;20378;-88
2022/03/25 07:58:43;;;;;;;16.20;10.10;;;359.30;1024.00;;;;;;4920942;29;20417;-89
2022/03/25 08:01:09;;;;;;;15.45;9.93;;;;;;;;;;4921227;29;20409;-90
2022/03/25 08:03:35;;;;;;;14.60;9.02;;;384.40;1024.00;;;;;;4920595;29;20468;-91
2022/03/25 08:06:03;;;;;;;16.30;9.43;;;384.70;998.40;;;;;;4908064;29;20392;-89
2022/03/25 08:08:29;;;;;;;18.38;10.68;;;;;;;;;;4909835;29;20382;-89
2022/03/25 08:10:56;;;;;;;18.83;9.35;;;409.70;972.80;;;;;;4921432;29;20382;-93
2022/03/25 08:13:24;;;;;;;15.70;8.67;;;;;;;;;;4921619;29;20480;-95
2022/03/25 08:15:50;;;;;;;14.60;9.75;;;460.80;921.60;;;;;;4931004;29;20404;-89
2022/03/25 08:18:16;;;;;;;13.70;9.73;;;486.80;844.80;;;;;;4929403;29;20441;-88
2022/03/25 08:20:45;;;;;;;13.07;9.02;;;537.90;742.40;;;;;;4920310;29;20398;-87
2022/03/25 08:23:12;;;;;;;14.40;9.38;;;563.80;742.40;;;;;;4920353;29;20382;-86
2022/03/25 08:28:23;;;;;;;12.10;8.13;;;614.90;691.20;;;;;;4937365;29;20389;-88
2022/03/25 08:30:50;;;;;;;11.68;8.68;;;640.20;614.40;;;;;;4921868;29;20378;-87
2022/03/25 08:33:16;;;;;;;13.73;9.15;;;665.70;614.40;;;;;;4939147;29;20873;-90
2022/03/25 08:35:43;;;;;;;13.65;9.10;;;665.80;588.80;;;;;;4939274;29;20389;-88
2022/03/25 08:38:10;;;;;;;16.30;9.43;;;691.30;588.80;;;;;;4929535;29;20755;-89
2022/03/25 08:40:37;;;;;;;18.90;9.83;;;692.00;563.20;;;;;;4920164;29;20394;-88
2022/03/25 08:43:04;;;;;;;43.97;11.32;;;742.40;588.80;;;;;;4920930;29;20635;-90
2022/03/25 08:45:31;;;;;;;13.40;8.68;;;743.00;563.20;;;;;;4927372;29;20156;-91
2022/03/25 08:47:57;;;;;;;14.63;9.15;;;768.00;537.60;;;;;;4929534;29;20053;-91
2022/03/25 08:50:24;;;;;;;21.05;9.32;;;793.70;537.60;;;;;;4922200;29;20032;-87
2022/03/25 08:52:51;;;;;;;22.42;8.90;;;793.80;563.20;;;;;;4924613;29;20031;-90
2022/03/25 08:55:19;;;;;;;13.75;8.60;;;793.80;512.00;;;;;;4926540;29;20385;-88
2022/03/25 08:57:45;;;;;;;16.83;9.73;;;794.30;537.60;;;;;;4937848;29;20129;-90
2022/03/25 09:00:14;;;;;;;16.48;9.07;;;819.20;512.00;;;;;;4922639;29;20111;-88
2022/03/25 09:02:45;;;;;;;13.73;8.73;;;819.40;512.00;;;;;;4919004;29;20028;-88
2022/03/25 09:05:12;;;;;;;18.70;9.27;;;844.80;486.40;;;;;;4923499;29;20032;-89
2022/03/25 09:07:38;;;;;;;11.25;8.82;;;845.20;486.40;;;;;;4929823;29;20046;-87
2022/03/25 09:10:08;;;;;;;17.75;9.35;;;845.10;486.40;;;;;;4928619;29;20031;-90
2022/03/25 09:12:35;;;;;;;13.70;9.32;;;845.70;460.80;;;;;;4923500;29;20019;-88
2022/03/25 09:15:03;;;;;;;15.32;9.13;;;871.20;435.20;;;;;;4920785;29;20051;-89
2022/03/25 09:17:29;;;;;;;16.58;9.05;;;896.60;409.60;;;;;;4920596;29;20028;-93
2022/03/25 09:19:56;;;;;;;25.10;9.68;;;896.80;409.60;;;;;;4922905;29;20484;-90
2022/03/25 09:22:21;;;;;;;18.15;9.93;;;896.80;409.60;;;;;;4930510;29;20032;-91
2022/03/25 09:24:48;;;;;;;16.88;10.23;;;922.10;409.60;;;;;;4920702;29;20032;-90
2022/03/25 09:27:14;;;;;;;25.17;10.18;;;947.40;384.00;;;;;;4922124;29;20061;-91
2022/03/25 09:29:40;;;;;;;14.55;7.85;;;922.50;384.00;;;;;;4926432;29;20039;-91
2022/03/25 09:32:06;;;;;;;11.93;8.13;;;947.90;384.00;;;;;;4936982;29;20034;-92
2022/03/25 09:37:16;;;;;;;16.02;9.38;;;973.00;384.00;;;;;;4946922;29;20031;-90
2022/03/25 09:39:42;;;;;;;16.73;9.25;;;998.70;384.00;;;;;;4923624;29;20027;-94
2022/03/25 09:42:08;;;;;;;12.50;8.55;;;998.60;384.00;;;;;;4932800;29;20030;-93
2022/03/25 09:44:34;;;;;;;14.90;8.57;;;1024.00;358.40;;;;;;4930046;29;20054;-88
2022/03/25 09:47:03;;;;;;;11.27;8.95;;;1024.30;358.40;;;;;;4933660;29;20051;-93
2022/03/25 09:49:30;;;;;;;28.52;9.07;;;1049.70;358.40;;;;;;4928489;29;20635;-91
2022/03/25 09:51:56;;;;;;;10.38;8.73;;;1024.60;332.80;;;;;;4936186;29;20023;-92
2022/03/25 09:54:21;;;;;;;14.23;8.30;;;1050.00;358.40;;;;;;4939225;29;20037;-91
2022/03/25 09:56:48;;;;;;;15.85;8.65;;;1024.80;358.40;;;;;;4938533;29;20023;-90
2022/03/25 09:59:17;;;;;;;11.88;8.75;;;973.00;384.00;;;;;;4940004;29;20034;-90
2022/03/25 10:01:44;;;;;;;13.45;9.38;;;870.90;435.20;;;;;;4938950;29;20130;-92
2022/03/25 10:04:39;;;;;;;15.05;9.68;;;819.40;486.40;;;;;;4927054;29;20127;-92
2022/03/25 10:07:16;;;;;;;16.67;9.43;;;;;;;;;;4942533;29;20016;-88
2022/03/25 10:09:45;;;;;;;11.48;8.60;;;717.40;563.20;;;;;;4910478;29;20035;-86
2022/03/25 10:12:24;;;;;;;;;;;691.80;563.20;;;;;;4927623;29;20019;-86
2022/03/25 10:14:51;;;;;;;;;;;666.40;588.80;;;;;;4933548;29;20004;-85
2022/03/25 10:17:19;;;;;;;17.50;9.20;;;665.80;614.40;;;;;;4929048;29;19915;-91
2022/03/25 10:19:53;;;;;;;;;;;640.30;614.40;;;;;;4924569;29;20030;-85
2022/03/25 10:22:19;;;;;;;;;;;640.00;640.00;;;;;;4918857;29;19928;-86
2022/03/25 10:24:48;;;;;;;;;;;615.30;640.00;;;;;;4918880;29;20372;-86
2022/03/25 10:27:21;;;;;;;14.95;9.50;;;615.10;665.60;;;;;;4918972;29;19918;-85
2022/03/25 10:29:47;;;;;;;;;;;615.10;665.60;;;;;;4919528;29;20068;-85
2022/03/25 10:32:15;;;;;;;;;;;614.90;665.60;;;;;;4919886;29;19918;-85
2022/03/25 10:34:42;;;;;;;;;;;614.40;665.60;;;;;;4919967;29;19907;-85
2022/03/25 10:37:11;;;;;;;;;;;614.40;665.60;;;;;;4920075;29;19906;-86
2022/03/25 10:39:38;;;;;;;;;;;614.40;691.20;;;;;;4920071;29;19907;-86
2022/03/25 10:42:04;;;;;;;;;;;589.70;691.20;;;;;;4922935;29;19950;-84
2022/03/25 10:44:34;;;;;;;;;;;589.60;691.20;;;;;;4923709;29;20327;-84
2022/03/25 10:47:18;;;;;;;;;;;589.10;691.20;;;;;;4923773;29;20005;-85
2022/03/25 10:49:46;;;;;;;;;;;588.80;742.40;;;;;;4923619;29;19919;-85
2022/03/25 10:52:25;;;;;;;;;;;588.80;742.40;;;;;;4923638;29;19945;-86
2022/03/25 10:55:11;;;;;;;;;;;564.10;716.80;;;;;;4923300;29;19997;-85
2022/03/25 10:57:50;;;;;;;;;;;588.80;716.80;;;;;;4923596;29;19914;-95
2022/03/25 11:00:16;;;;;;;;;;;588.90;742.40;;;;;;4924626;29;19926;-84
2022/03/25 11:02:44;;;;;;;;;;;564.10;691.20;;;;;;4923729;29;19915;-93
2022/03/25 11:05:10;;;;;;;;;;;564.00;716.80;;;;;;4923282;29;20268;-90
2022/03/25 11:07:40;;;;;;;;;;;563.70;716.80;;;;;;4923159;29;19911;-92
2022/03/25 11:10:06;;;;;;;;;;;563.70;742.40;;;;;;4919487;29;19982;-90
2022/03/25 11:12:32;;;;;;;;;;;563.70;742.40;;;;;;4922950;29;19910;-89
2022/03/25 11:14:59;;;;;;;;;;;563.70;742.40;;;;;;4922771;29;19919;-91
2022/03/25 11:17:28;;;;;;;;;;;563.80;742.40;;;;;;4923230;29;19950;-92
2022/03/25 11:19:55;;;;;;;;;;;563.50;716.80;;;;;;4922731;29;20295;-93
2022/03/25 11:22:22;;;;;;;;;;;563.50;716.80;;;;;;4924808;29;20398;-94
2022/03/25 11:24:50;;;;;;;;;;;563.40;716.80;;;;;;4932720;29;19910;-91
2022/03/25 11:27:19;;;;;;;;;;;538.40;716.80;;;;;;4927576;29;19925;-93
2022/03/25 11:29:45;;;;;;;;;;;538.50;716.80;;;;;;4922621;29;19919;-87
2022/03/25 11:32:12;;;;;;;;;;;538.50;691.20;;;;;;4922972;29;19906;-94
2022/03/25 11:34:42;;;;;;;;;;;538.50;691.20;;;;;;4922680;29;19913;-91
2022/03/25 11:37:34;;;;;;;;;;;538.40;742.40;;;;;;4922456;29;19966;-92
2022/03/25 11:40:15;;;;;;;;;;;538.50;742.40;;;;;;4920143;29;19913;-89
2022/03/25 11:42:42;;;;;;;;;;;563.30;768.00;;;;;;4922379;29;20348;-88
2022/03/25 11:45:32;;;;;;;;;;;563.30;716.80;;;;;;4922850;29;20283;-90
2022/03/25 11:48:04;;;;;;;;;;;563.30;716.80;;;;;;4922825;29;19930;-86
2022/03/25 11:50:31;;;;;;;;;;;563.20;716.80;;;;;;4922306;29;19915;-87
2022/03/25 11:52:57;;;;;;;;;;;538.50;691.20;;;;;;4922145;29;20431;-92
2022/03/25 11:55:23;;;;;;;;;;;538.20;716.80;;;;;;4922607;29;20290;-93
2022/03/25 11:57:49;;;;;;;;;;;563.20;716.80;;;;;;4931561;29;19913;-95
2022/03/25 12:00:25;;;;;;;;;;;538.50;716.80;;;;;;4927245;29;19911;-88
2022/03/25 12:03:04;;;;;;;;;;;563.20;716.80;;;;;;4931242;29;20287;-88
2022/03/25 12:05:32;;;;;;;;;;;538.30;716.80;;;;;;4941351;29;19916;-88
2022/03/25 12:08:16;;;;;;;;;;;538.30;691.20;;;;;;4941720;29;19956;-86
2022/03/25 12:10:46;;;;;;;;;;;538.10;716.80;;;;;;4932757;29;19915;-92
2022/03/25 12:13:11;;;;;;;;;;;538.10;691.20;;;;;;4934710;29;19917;-90
2022/03/25 12:15:41;;;;;;;;;;;538.20;716.80;;;;;;4935717;29;19914;-89
2022/03/25 12:18:25;;;;;;;;;;;538.40;691.20;;;;;;4922025;29;19962;-90
2022/03/25 12:20:51;;;;;;;;;;;563.20;742.40;;;;;;4922111;29;19911;-88
2022/03/25 12:23:16;;;;;;;;;;;563.30;716.80;;;;;;4922275;29;19914;-92
2022/03/25 12:25:43;;;;;;;;;;;538.50;716.80;;;;;;4922449;29;19910;-85
2022/03/25 12:28:09;;;;;;;;;;;538.50;716.80;;;;;;4922148;29;19907;-88
2022/03/25 12:30:38;;;;;;;;;;;538.50;691.20;;;;;;4922044;29;20476;-89
2022/03/25 12:33:08;;;;;;;;;;;538.50;691.20;;;;;;4939005;29;19981;-91
2022/03/25 12:35:35;;;;;;;;;;;563.20;716.80;;;;;;4922411;29;19993;-88
2022/03/25 12:38:04;;;;;;;;;;;563.20;742.40;;;;;;4934737;29;19935;-89
2022/03/25 12:40:32;;;;;;;;;;;538.50;716.80;;;;;;4941418;29;19929;-86
2022/03/25 12:42:59;;;;;;;;;;;563.20;742.40;;;;;;4940862;29;19950;-89
2022/03/25 12:45:32;;;;;;;;;;;563.40;742.40;;;;;;4928577;29;19906;-88
2022/03/25 12:48:06;;;;;;;;;;;563.70;716.80;;;;;;4931269;29;19914;-88
2022/03/25 12:50:32;;;;;;;;;;;564.00;742.40;;;;;;4924650;29;19915;-87
2022/03/25 12:52:59;;;;;;;;;;;564.00;742.40;;;;;;4922232;29;20360;-90
2022/03/25 12:55:25;;;;;;;;;;;564.10;716.80;;;;;;4920724;29;19961;-89
2022/03/25 12:57:51;;;;;;;;;;;588.80;716.80;;;;;;4920801;29;19913;-90
2022/03/25 13:00:16;;;;;;;;;;;564.10;716.80;;;;;;4920982;29;19914;-89
2022/03/25 13:02:43;;;;;;;;;;;564.00;742.40;;;;;;4921337;29;19911;-88
2022/03/25 13:05:18;;;;;;;;;;;564.10;716.80;;;;;;4921133;29;19933;-88
2022/03/25 13:07:43;;;;;;;;;;;589.30;742.40;;;;;;4919108;29;19942;-93
2022/03/25 13:10:10;;;;;;;;;;;665.70;665.60;;;;;;4920798;29;20005;-89
2022/03/25 13:12:37;;;;;;;;;;;819.20;486.40;;;;;;4920971;29;19907;-89
2022/03/25 13:15:04;;;;;;;;;;;947.40;409.60;;;;;;4920289;29;19910;-87
2022/03/25 13:17:35;;;;;;;;;;;999.20;358.40;;;;;;4921136;29;20655;-86
2022/03/25 13:20:02;;;;;;;;;;;1075.50;358.40;;;;;;4921084;29;19954;-88
2022/03/25 13:22:27;;;;;;;;;;;1126.70;409.60;;;;;;4921199;29;19907;-88
2022/03/25 13:24:57;;;;;;;;;;;1126.70;409.60;;;;;;4921265;29;19962;-88
2022/03/25 13:27:23;;;;;;;;;;;1152.20;409.60;;;;;;4920864;29;19910;-89
2022/03/25 13:29:50;;;;;;;;;;;1152.50;409.60;;;;;;4920956;29;19921;-87
2022/03/25 13:32:30;;;;;;;;;;;1203.30;435.20;;;;;;4921239;29;19914;-88
2022/03/25 13:35:13;;;;;;;;;;;1203.70;435.20;;;;;;4922679;29;19926;-88
2022/03/25 13:37:39;;;;;;;;;;;1229.10;460.80;;;;;;4928637;29;19954;-89
2022/03/25 13:40:24;;;;;;;;;;;1229.10;460.80;;;;;;4938467;29;20389;-87
2022/03/25 13:42:54;;;;;;;;;;;1229.40;460.80;;;;;;4937686;29;19945;-87
2022/03/25 13:45:20;;;;;;;;;;;1254.50;486.40;;;;;;4934722;29;19932;-90
2022/03/25 13:47:56;;;;;;;;;;;1229.30;460.80;;;;;;4921052;29;20418;-88
2022/03/25 13:50:22;;;;;;;;;;;1254.50;486.40;;;;;;4920345;29;19941;-87
2022/03/25 13:52:59;;;;;;;;;;;1228.90;460.80;;;;;;4920034;29;20291;-86
2022/03/25 13:55:31;;;;;;;;;;;1178.30;409.60;;;;;;4920258;29;19907;-85
2022/03/25 13:57:57;;;;;;;;;;;1228.90;460.80;;;;;;4919369;29;20332;-86
2022/03/25 14:00:30;;;;;;;;;;;1229.30;460.80;;;;;;4919659;29;19915;-86
2022/03/25 14:02:57;;;;;;;;;;;1229.40;460.80;;;;;;4919333;29;20283;-88
2022/03/25 14:05:25;;;;;;;;;;;1254.50;486.40;;;;;;4920058;29;19907;-86
2022/03/25 14:07:52;;;;;;;;;;;1229.10;460.80;;;;;;4920104;29;19906;-87
2022/03/25 14:10:17;;;;;;;;;;;1229.30;460.80;;;;;;4920470;29;20073;-88
2022/03/25 14:12:43;;;;;;;;;;;1254.60;486.40;;;;;;4920669;29;20367;-89
2022/03/25 14:15:13;;;;;;;;;;;1280.00;486.40;;;;;;4918437;29;20360;-85
2022/03/25 14:17:44;;;;;;;16.10;6.88;;;1127.20;409.60;;;;;;4922846;29;19911;-84
2022/03/25 14:20:13;;;;;;;16.80;8.50;;;973.30;358.40;;;;;;4923933;29;20028;-86
2022/03/25 14:22:41;;;;;;;11.73;8.82;;;871.10;409.60;;;;;;4923756;29;20069;-89
2022/03/25 14:25:11;;;;;;;16.33;7.90;;;794.30;486.40;;;;;;4923900;29;20035;-85
2022/03/25 14:27:37;;;;;;;14.27;8.02;;;743.00;512.00;;;;;;4907218;29;20758;-85
2022/03/25 14:30:04;;;;;;;26.70;8.18;;;717.30;512.00;;;;;;4922563;29;20985;-85
2022/03/25 14:32:30;;;;;;;11.32;7.28;;;691.90;512.00;;;;;;4922390;29;20473;-92
2022/03/25 14:34:56;;;;;;;16.75;9.93;;;691.50;563.20;;;;;;4922538;29;20472;-86
2022/03/25 14:37:23;;;;;;;25.10;13.43;;;666.00;563.20;;;;;;4922276;29;20389;-90
2022/03/25 14:39:53;;;;;;;16.98;9.55;;;640.90;563.20;;;;;;4922226;29;20763;-87
2022/03/25 14:42:19;;;;;;;13.57;8.27;;;640.60;563.20;;;;;;4921721;29;20382;-89
2022/03/25 14:44:45;;;;;;;18.45;10.30;;;640.50;563.20;;;;;;4921961;29;20469;-88
2022/03/25 14:47:12;;;;;;;55.90;39.78;;;640.20;614.40;;;;;;4920514;29;20393;-88
2022/03/25 14:49:39;;;;;;;31.35;19.67;;;615.30;614.40;;;;;;4920955;29;20436;-90
2022/03/25 14:52:07;;;;;;;37.17;19.20;;;615.00;614.40;;;;;;4921862;29;20071;-87
2022/03/25 14:54:33;;;;;;;74.10;37.63;;;614.70;640.00;;;;;;4922064;29;20035;-89
2022/03/25 14:57:02;;;;;;;212.40;120.80;;;589.50;640.00;;;;;;4922145;29;20024;-86
2022/03/25 14:59:29;;;;;;;40.05;23.88;;;589.40;665.60;;;;;;4922169;29;20036;-84
2022/03/25 15:01:57;;;;;;;;;;;589.30;691.20;;;;;;4923021;29;20024;-84
2022/03/25 15:04:24;;;;;;;;;;;589.20;665.60;;;;;;4923318;29;19911;-86
2022/03/25 15:06:49;;;;;;;;;;;588.90;691.20;;;;;;4923228;29;19914;-85
2022/03/25 15:09:15;;;;;;;;;;;563.90;691.20;;;;;;4922885;29;19923;-83
2022/03/25 15:11:42;;;;;;;;;;;563.70;716.80;;;;;;4922481;29;20291;-81
2022/03/25 15:14:08;;;;;;;;;;;563.60;716.80;;;;;;4922567;29;19911;-84
2022/03/25 15:16:34;;;;;;;;;;;538.50;716.80;;;;;;4922535;29;19927;-87
2022/03/25 15:19:00;;;;;;;;;;;538.50;716.80;;;;;;4922650;29;19916;-85
2022/03/25 15:21:25;;;;;;;;;;;538.30;716.80;;;;;;4922468;29;19907;-84
2022/03/25 15:23:51;;;;;;;;;;;563.30;716.80;;;;;;4922177;29;19917;-88
2022/03/25 15:26:17;;;;;;;13.32;7.82;;;538.30;716.80;;;;;;4921758;29;19962;-88
2022/03/25 15:28:43;;;;;;;14.77;8.77;;;538.30;691.20;;;;;;4922118;29;20036;-88
2022/03/25 15:36:37;;;;;;;34.28;14.35;;;537.90;716.80;;;;;;4939517;29;20030;-87
2022/03/25 15:39:04;;;;;;;108.53;39.85;;;537.80;716.80;;;;;;4923023;29;20035;-92
2022/03/25 15:41:32;;;;;;;275.38;96.13;;;537.80;716.80;;;;;;4922608;29;20031;-87
2022/03/25 15:43:59;;;;;;;19.92;9.48;;;537.60;742.40;;;;;;4906991;29;20051;-86
2022/03/25 15:46:26;;;;;;;19.52;10.45;;;537.60;742.40;;;;;;4921344;29;20052;-87
2022/03/25 15:48:52;;;;;;;18.92;9.45;;;512.80;716.80;;;;;;4921961;29;20024;-86
2022/03/25 15:51:19;;;;;;;373.42;117.68;;;512.70;691.20;;;;;;4922134;29;20051;-87
2022/03/25 15:53:46;;;;;;;97.00;32.95;;;512.80;716.80;;;;;;4921988;29;20145;-85
2022/03/25 15:56:15;;;;;;;35.22;14.20;;;512.80;716.80;;;;;;4921983;29;20444;-89
2022/03/25 15:58:42;;;;;;;73.97;36.95;;;512.70;716.80;;;;;;4922526;29;20362;-87
2022/03/25 16:01:10;;;;;;;245.98;108.15;;;512.50;716.80;;;;;;4921665;29;20102;-88
2022/03/25 16:03:36;;;;;;;83.28;36.58;;;512.40;742.40;;;;;;4921882;29;20023;-88
2022/03/25 16:06:08;;;;;;;35.33;21.27;;;512.30;742.40;;;;;;4921873;29;20027;-87
2022/03/25 16:08:35;;;;;;;123.88;48.15;;;512.20;742.40;;;;;;4921643;29;20067;-86
2022/03/25 16:11:01;;;;;;;39.53;22.70;;;512.10;742.40;;;;;;4921577;29;20031;-87
2022/03/25 16:13:29;;;;;;;46.10;30.83;;;512.00;742.40;;;;;;4920905;29;20024;-88
2022/03/25 16:15:59;;;;;;;75.10;51.03;;;487.30;768.00;;;;;;4920670;29;20507;-88
2022/03/25 16:18:24;;;;;;;20.65;11.13;;;487.20;768.00;;;;;;4921440;29;20118;-88
2022/03/25 16:20:55;;;;;;;23.77;11.13;;;487.10;768.00;;;;;;4920915;29;20067;-88
2022/03/25 16:23:22;;;;;;;21.38;12.02;;;487.00;768.00;;;;;;4920524;29;20034;-87
2022/03/25 16:25:47;;;;;;;65.72;34.70;;;486.90;768.00;;;;;;4921137;29;20058;-89
2022/03/25 16:28:13;;;;;;;32.13;20.73;;;486.90;819.20;;;;;;4920701;29;20389;-88
2022/03/25 16:30:39;;;;;;;17.95;11.30;;;486.80;793.60;;;;;;4919913;29;20075;-87
2022/03/25 16:33:05;;;;;;;22.10;16.60;;;486.80;793.60;;;;;;4920335;29;20028;-85
2022/03/25 16:35:31;;;;;;;;;;;486.80;793.60;;;;;;4921212;29;20024;-87
2022/03/25 16:37:57;;;;;;;;;;;486.80;793.60;;;;;;4921224;29;20403;-88
2022/03/25 16:40:22;;;;;;;;;;;486.50;819.20;;;;;;4921305;29;19929;-88
2022/03/25 16:42:49;;;;;;;;;;;486.50;819.20;;;;;;4921649;29;19907;-87
2022/03/25 16:45:15;;;;;;;;;;;486.40;819.20;;;;;;4921618;29;19911;-86
2022/03/25 16:47:43;;;;;;;;;;;461.60;819.20;;;;;;4921472;29;19907;-88
2022/03/25 16:50:09;;;;;;;;;;;461.60;844.80;;;;;;4921338;29;19937;-86
2022/03/25 16:52:37;;;;;;;;;;;461.50;819.20;;;;;;4921557;29;20355;-89
2022/03/25 16:55:07;;;;;;;;;;;461.40;844.80;;;;;;4921571;29;20075;-88
2022/03/25 16:57:32;;;;;;;;;;;461.30;844.80;;;;;;4921484;29;19979;-85
2022/03/25 16:59:58;;;;;;;;;;;461.20;844.80;;;;;;4921265;29;19920;-84
2022/03/25 17:02:24;;;;;;;;;;;461.10;870.40;;;;;;4920617;29;19977;-85
2022/03/25 17:04:49;;;;;;;;;;;461.00;870.40;;;;;;4920093;29;20399;-84
2022/03/25 17:07:15;;;;;;;;;;;461.00;870.40;;;;;;4921311;29;20446;-84
2022/03/25 17:09:41;;;;;;;;;;;460.90;870.40;;;;;;4921125;29;20368;-84
2022/03/25 17:12:07;;;;;;;;;;;460.80;896.00;;;;;;4921169;29;19907;-84
2022/03/25 17:14:33;;;;;;;;;;;436.00;870.40;;;;;;4921049;29;20292;-84
2022/03/25 17:16:59;;;;;;;;;;;436.00;870.40;;;;;;4921093;29;19926;-84
2022/03/25 17:19:25;;;;;;;;;;;435.80;870.40;;;;;;4921179;29;19906;-84
2022/03/25 17:21:50;;;;;;;;;;;435.70;896.00;;;;;;4921008;29;19914;-84
2022/03/25 17:24:16;;;;;;;;;;;435.60;896.00;;;;;;4921016;29;19907;-85
2022/03/25 17:26:44;;;;;;;;;;;435.40;921.60;;;;;;4921306;29;19907;-84
2022/03/25 17:29:10;;;;;;;;;;;435.40;896.00;;;;;;4920915;29;19922;-80
2022/03/25 17:31:36;;;;;;;;;;;435.30;896.00;;;;;;4921098;29;20355;-88
2022/03/25 17:34:01;;;;;;;;;;;435.20;896.00;;;;;;4920952;29;19914;-87
2022/03/25 17:36:27;;;;;;;;;;;435.20;896.00;;;;;;4920971;29;19911;-85
2022/03/25 17:38:59;;;;;;;;;;;435.20;896.00;;;;;;4920825;29;19946;-85
2022/03/25 17:41:26;;;;;;;;;;;410.50;896.00;;;;;;4920899;29;20267;-84
2022/03/25 17:43:51;;;;;;;;;;;410.50;921.60;;;;;;4920834;29;19997;-84
2022/03/25 17:46:17;;;;;;;;;;;410.40;921.60;;;;;;4920630;29;20001;-84
2022/03/25 17:48:43;;;;;;;;;;;410.30;896.00;;;;;;4920533;29;19914;-84
2022/03/25 17:51:09;;;;;;;;;;;410.20;921.60;;;;;;4920384;29;19911;-85
2022/03/25 17:53:34;;;;;;;;;;;410.10;921.60;;;;;;4920663;29;19914;-84
2022/03/25 17:56:00;;;;;;;;;;;410.00;947.20;;;;;;4920740;29;19913;-83
2022/03/25 17:58:27;;;;;;;;;;;409.80;947.20;;;;;;4920519;29;19914;-87
2022/03/25 18:00:57;;;;;;;;;;;409.90;947.20;;;;;;4920303;29;20144;-87
2022/03/25 18:03:23;;;;;;;;;;;409.90;947.20;;;;;;4920793;29;19911;-83
2022/03/25 18:05:49;;;;;;;;;;;409.80;947.20;;;;;;4920547;29;19958;-83
2022/03/25 18:08:15;;;;;;;;;;;409.70;947.20;;;;;;4920423;29;19939;-84
2022/03/25 18:10:41;;;;;;;;;;;409.70;972.80;;;;;;4920229;29;19962;-88
2022/03/25 18:13:08;;;;;;;;;;;409.60;947.20;;;;;;4919723;29;19910;-84
2022/03/25 18:15:36;;;;;;;;;;;409.60;972.80;;;;;;4918464;29;19929;-84
2022/03/25 18:18:06;;;;;;;;;;;384.90;947.20;;;;;;4919465;29;19915;-84
2022/03/25 18:20:32;;;;;;;;;;;384.80;947.20;;;;;;4920411;29;19970;-83
2022/03/25 18:22:57;;;;;;;;;;;384.80;947.20;;;;;;4920352;29;19911;-85
2022/03/25 18:25:23;;;;;;;;;;;384.70;947.20;;;;;;4920289;29;20018;-84